Time;durP1;ratioP1;P1;durP2;ratioP2;P2;SDS_P1;SDS_P2;PMS_P1;PMS_P2;Temp;Humidity;BMP_temperature;BMP_pressure;BME280_temperature;BME280_humidity;BME280_pressure;Samples;Min_cycle;Max_cycle;Signal;HPM_P1;HPM_P2
2022/09/07 00:02:34;;;;;;;24.17;13.32;;;;;;;;;;4992204;28;20045;-73
2022/09/07 00:05:45;;;;;;;22.23;13.55;;;;;;;;;;4991921;28;20501;-73
2022/09/07 00:08:49;;;;;;;18.02;13.55;;;;;;;;;;4992115;28;20049;-73
2022/09/07 00:11:54;;;;;;;22.38;14.30;;;;;;;;;;4992030;28;20050;-73
2022/09/07 00:14:58;;;;;;;20.02;13.60;;;;;;;;;;4991785;28;20406;-73
2022/09/07 00:18:03;;;;;;;23.70;14.05;;;;;;;;;;4990548;28;20046;-72
2022/09/07 00:21:08;;;;;;;23.90;14.00;;;;;;;;;;4991521;28;20375;-72
2022/09/07 00:24:12;;;;;;;25.48;15.23;;;;;;;;;;4991012;28;20050;-73
2022/09/07 00:27:17;;;;;;;27.63;15.35;;;;;;;;;;4991896;28;20509;-72
2022/09/07 00:30:21;;;;;;;24.38;14.88;;;;;;;;;;4992116;28;20057;-72
2022/09/07 00:33:25;;;;;;;23.23;14.55;;;;;;;;;;4991934;28;20489;-72
2022/09/07 00:36:30;;;;;;;24.08;16.02;;;;;;;;;;4991695;28;20050;-72
2022/09/07 00:39:36;;;;;;;24.40;15.82;;;;;;;;;;4991324;28;20513;-72
2022/09/07 00:42:40;;;;;;;24.30;14.63;;;;;;;;;;4991901;28;20122;-72
2022/09/07 00:45:44;;;;;;;25.33;14.77;;;;;;;;;;4979814;28;20045;-72
2022/09/07 00:48:50;;;;;;;25.73;14.43;;;;;;;;;;4991646;28;20041;-72
2022/09/07 00:51:57;;;;;;;21.20;13.38;;;;;;;;;;4991526;28;20049;-72
2022/09/07 00:55:02;;;;;;;21.48;14.20;;;;;;;;;;4991459;28;20418;-73
2022/09/07 00:58:07;;;;;;;28.55;16.42;;;;;;;;;;4991356;28;20517;-72
2022/09/07 01:01:11;;;;;;;21.92;15.15;;;;;;;;;;4991403;28;20042;-73
2022/09/07 01:04:16;;;;;;;22.35;15.07;;;;;;;;;;4991258;28;20209;-72
2022/09/07 01:07:20;;;;;;;21.60;13.73;;;;;;;;;;4991609;28;20513;-72
2022/09/07 01:10:25;;;;;;;20.35;13.43;;;;;;;;;;4990590;28;20053;-72
2022/09/07 01:13:30;;;;;;;18.73;12.38;;;;;;;;;;4994815;28;20053;-73
2022/09/07 01:16:48;;;;;;;18.25;11.90;;;;;;;;;;4994176;28;20053;-72
2022/09/07 01:19:55;;;;;;;23.15;12.25;;;;;;;;;;4994785;28;20050;-72
2022/09/07 01:23:10;;;;;;;19.15;11.32;;;;;;;;;;4993989;28;20037;-73
2022/09/07 01:26:15;;;;;;;19.80;11.25;;;;;;;;;;4993925;28;20049;-73
2022/09/07 01:29:26;;;;;;;17.77;10.48;;;;;;;;;;4994769;28;20046;-73
2022/09/07 01:32:30;;;;;;;16.83;10.68;;;;;;;;;;4994627;28;20057;-73
2022/09/07 01:35:47;;;;;;;16.42;11.75;;;;;;;;;;4994758;28;20406;-72
2022/09/07 01:38:56;;;;;;;16.52;10.82;;;;;;;;;;4994894;28;20508;-72
2022/09/07 01:42:11;;;;;;;20.83;11.77;;;;;;;;;;4993794;28;20085;-73
2022/09/07 01:45:17;;;;;;;22.02;11.90;;;;;;;;;;4994548;28;20069;-73
2022/09/07 01:48:22;;;;;;;15.52;10.30;;;;;;;;;;4994518;28;20509;-72
2022/09/07 01:51:28;;;;;;;22.58;10.88;;;;;;;;;;4994488;28;20040;-72
2022/09/07 01:54:34;;;;;;;14.50;8.35;;;;;;;;;;4994108;28;20050;-72
2022/09/07 01:57:43;;;;;;;14.13;8.45;;;;;;;;;;4993759;28;20122;-72
2022/09/07 02:00:52;;;;;;;14.45;7.72;;;;;;;;;;4993534;28;20042;-72
2022/09/07 02:04:02;;;;;;;13.43;7.25;;;;;;;;;;4994028;28;20111;-73
2022/09/07 02:07:14;;;;;;;12.40;7.20;;;;;;;;;;4993890;28;20046;-73
2022/09/07 02:10:23;;;;;;;11.50;6.97;;;;;;;;;;4994405;28;20051;-72
2022/09/07 02:13:33;;;;;;;13.18;6.50;;;;;;;;;;4994128;28;20054;-72
2022/09/07 02:16:56;;;;;;;12.07;6.70;;;;;;;;;;4993588;28;20525;-72
2022/09/07 02:20:04;;;;;;;9.23;6.30;;;;;;;;;;4994007;28;20054;-72
2022/09/07 02:23:12;;;;;;;10.25;6.13;;;;;;;;;;4992960;28;20387;-72
2022/09/07 02:26:19;;;;;;;16.15;6.45;;;;;;;;;;4992618;28;20282;-72
2022/09/07 02:29:23;;;;;;;13.45;6.55;;;;;;;;;;4993978;28;20046;-73
2022/09/07 02:32:27;;;;;;;10.40;6.78;;;;;;;;;;4993731;28;20045;-72
2022/09/07 02:35:33;;;;;;;12.05;6.05;;;;;;;;;;4993715;28;20050;-72
2022/09/07 02:38:37;;;;;;;13.13;6.22;;;;;;;;;;4993747;28;20046;-72
2022/09/07 02:41:42;;;;;;;13.30;6.75;;;;;;;;;;4993572;28;20042;-72
2022/09/07 02:44:47;;;;;;;16.10;6.85;;;;;;;;;;4992671;28;20030;-72
2022/09/07 02:48:01;;;;;;;14.75;7.15;;;;;;;;;;4993220;28;20049;-72
2022/09/07 02:51:11;;;;;;;15.85;7.28;;;;;;;;;;4993176;28;20392;-72
2022/09/07 02:54:34;;;;;;;14.27;7.55;;;;;;;;;;4993008;28;20058;-73
2022/09/07 02:57:53;;;;;;;14.35;7.25;;;;;;;;;;4992989;28;20046;-73
2022/09/07 03:01:06;;;;;;;14.95;7.65;;;;;;;;;;5003835;28;20502;-73
2022/09/07 03:04:46;;;;;;;10.07;6.93;;;;;;;;;;4993368;28;20050;-73
2022/09/07 03:07:59;;;;;;;14.52;7.70;;;;;;;;;;5009365;28;20064;-73
2022/09/07 03:11:04;;;;;;;10.57;7.10;;;;;;;;;;4993181;28;20368;-73
2022/09/07 03:14:11;;;;;;;11.25;7.38;;;;;;;;;;4992644;28;20057;-73
2022/09/07 03:17:16;;;;;;;13.18;6.88;;;;;;;;;;4992618;28;20046;-73
2022/09/07 03:20:21;;;;;;;14.25;7.03;;;;;;;;;;4993016;28;20059;-73
2022/09/07 03:23:25;;;;;;;10.68;6.80;;;;;;;;;;4992685;28;20042;-73
2022/09/07 03:26:29;;;;;;;11.45;6.65;;;;;;;;;;5003206;28;20039;-73
2022/09/07 03:29:34;;;;;;;15.13;7.75;;;;;;;;;;4992036;28;20045;-73
2022/09/07 03:32:38;;;;;;;11.02;6.50;;;;;;;;;;4992383;28;20031;-74
2022/09/07 03:35:43;;;;;;;13.60;6.63;;;;;;;;;;4992356;28;20517;-73
2022/09/07 03:38:47;;;;;;;15.25;7.45;;;;;;;;;;4992688;28;20042;-73
2022/09/07 03:41:51;;;;;;;14.38;7.60;;;;;;;;;;4992445;28;20373;-73
2022/09/07 03:44:56;;;;;;;12.70;7.22;;;;;;;;;;4992212;28;20061;-73
2022/09/07 03:48:00;;;;;;;12.68;7.45;;;;;;;;;;5003196;28;20371;-73
2022/09/07 03:51:06;;;;;;;15.35;8.00;;;;;;;;;;4992054;28;20042;-73
2022/09/07 03:54:10;;;;;;;12.27;8.10;;;;;;;;;;4992161;28;20513;-73
2022/09/07 03:57:14;;;;;;;14.48;8.93;;;;;;;;;;4991350;28;20039;-73
2022/09/07 04:00:18;;;;;;;17.50;11.00;;;;;;;;;;4991315;28;20053;-73
2022/09/07 04:03:23;;;;;;;20.02;9.93;;;;;;;;;;4992107;28;20046;-72
2022/09/07 04:06:27;;;;;;;22.35;12.40;;;;;;;;;;4992225;28;20038;-73
2022/09/07 04:09:31;;;;;;;20.25;12.32;;;;;;;;;;4991625;28;20045;-72
2022/09/07 04:12:35;;;;;;;23.40;12.75;;;;;;;;;;4991924;28;20497;-72
2022/09/07 04:15:40;;;;;;;19.25;12.30;;;;;;;;;;4991683;28;20410;-73
2022/09/07 04:18:44;;;;;;;19.77;11.48;;;;;;;;;;4991394;28;20061;-71
2022/09/07 04:21:48;;;;;;;16.13;10.63;;;;;;;;;;4991770;28;20068;-72
2022/09/07 04:24:53;;;;;;;20.05;12.18;;;;;;;;;;4992053;28;20367;-72
2022/09/07 04:27:57;;;;;;;22.23;12.02;;;;;;;;;;4991495;28;20050;-72
2022/09/07 04:31:02;;;;;;;22.85;13.57;;;;;;;;;;4991721;28;20038;-73
2022/09/07 04:34:06;;;;;;;16.90;11.63;;;;;;;;;;4991648;28;20041;-73
2022/09/07 04:37:11;;;;;;;36.22;19.38;;;;;;;;;;4991662;28;20049;-73
2022/09/07 04:40:15;;;;;;;28.17;20.10;;;;;;;;;;4991698;28;20045;-73
2022/09/07 04:43:19;;;;;;;20.60;15.30;;;;;;;;;;4991938;28;20053;-72
2022/09/07 04:46:28;;;;;;;21.67;13.32;;;;;;;;;;4991339;28;20057;-73
2022/09/07 04:49:33;;;;;;;26.45;15.52;;;;;;;;;;4995578;28;20061;-73
2022/09/07 04:52:38;;;;;;;21.10;12.88;;;;;;;;;;4995524;28;20053;-73
2022/09/07 04:55:42;;;;;;;20.15;11.52;;;;;;;;;;4994463;28;20122;-73
2022/09/07 04:58:47;;;;;;;16.85;11.95;;;;;;;;;;4995311;28;20053;-73
2022/09/07 05:01:51;;;;;;;16.30;11.43;;;;;;;;;;4994618;28;20049;-72
2022/09/07 05:04:55;;;;;;;15.48;11.25;;;;;;;;;;4994486;28;20049;-73
2022/09/07 05:07:59;;;;;;;17.20;11.55;;;;;;;;;;4995082;28;20065;-73
2022/09/07 05:11:04;;;;;;;16.23;11.85;;;;;;;;;;4995574;28;20398;-74
2022/09/07 05:14:09;;;;;;;23.38;11.90;;;;;;;;;;4994347;28;20057;-73
2022/09/07 05:17:14;;;;;;;15.98;10.65;;;;;;;;;;4994711;28;20069;-73
2022/09/07 05:20:19;;;;;;;24.58;11.85;;;;;;;;;;4994088;28;20049;-73
2022/09/07 05:23:25;;;;;;;19.98;12.20;;;;;;;;;;4994113;28;20045;-72
2022/09/07 05:26:30;;;;;;;18.75;12.48;;;;;;;;;;4993479;28;20057;-71
2022/09/07 05:29:34;;;;;;;25.65;11.68;;;;;;;;;;4993717;28;20049;-71
2022/09/07 05:32:38;;;;;;;32.72;17.75;;;;;;;;;;4993366;28;20390;-72
2022/09/07 05:35:42;;;;;;;23.92;12.32;;;;;;;;;;4992533;28;20053;-69
2022/09/07 05:38:47;;;;;;;25.27;12.20;;;;;;;;;;4992014;28;20414;-71
2022/09/07 05:41:51;;;;;;;16.20;11.50;;;;;;;;;;4993285;28;20406;-71
2022/09/07 05:44:56;;;;;;;22.75;10.88;;;;;;;;;;4993233;28;20038;-71
2022/09/07 05:48:00;;;;;;;24.77;11.73;;;;;;;;;;4993095;28;20406;-71
2022/09/07 05:51:05;;;;;;;20.83;11.63;;;;;;;;;;4991963;28;20041;-70
2022/09/07 05:54:10;;;;;;;23.83;11.63;;;;;;;;;;4992599;28;20049;-72
2022/09/07 05:57:15;;;;;;;23.33;11.73;;;;;;;;;;4991926;28;20041;-72
2022/09/07 06:00:22;;;;;;;18.27;12.27;;;;;;;;;;4992021;28;20505;-69
2022/09/07 06:03:26;;;;;;;23.30;13.85;;;;;;;;;;4991649;28;20050;-71
2022/09/07 06:06:31;;;;;;;27.67;14.43;;;;;;;;;;4992356;28;20508;-72
2022/09/07 06:09:36;;;;;;;30.52;12.75;;;;;;;;;;4992351;28;20037;-71
2022/09/07 06:12:44;;;;;;;27.45;13.10;;;;;;;;;;4992184;28;20073;-70
2022/09/07 06:15:48;;;;;;;41.95;17.73;;;;;;;;;;4992504;28;20042;-70
2022/09/07 06:18:53;;;;;;;23.08;12.85;;;;;;;;;;4938835;28;1590600;-71
2022/09/07 06:21:57;;;;;;;24.95;11.13;;;;;;;;;;4993596;28;20049;-69
2022/09/07 06:25:02;;;;;;;13.95;8.60;;;;;;;;;;4993567;28;20037;-66
2022/09/07 06:28:06;;;;;;;15.90;8.25;;;;;;;;;;4993018;28;20050;-65
2022/09/07 06:31:14;;;;;;;17.40;7.75;;;;;;;;;;4992054;28;20296;-67
2022/09/07 06:34:18;;;;;;;17.42;6.93;;;;;;;;;;5002454;28;20126;-69
2022/09/07 06:37:23;;;;;;;13.23;6.75;;;;;;;;;;4992145;28;20042;-66
2022/09/07 06:40:27;;;;;;;14.18;7.63;;;;;;;;;;4992477;28;20050;-68
2022/09/07 06:43:32;;;;;;;15.20;7.30;;;;;;;;;;4993092;28;20057;-66
2022/09/07 06:46:36;;;;;;;17.13;7.65;;;;;;;;;;4992489;28;20043;-68
2022/09/07 06:49:40;;;;;;;27.45;8.85;;;;;;;;;;4993093;28;20034;-69
2022/09/07 06:52:44;;;;;;;30.98;10.07;;;;;;;;;;4992971;28;20038;-69
2022/09/07 06:55:49;;;;;;;21.15;11.90;;;;;;;;;;4993193;28;20053;-67
2022/09/07 06:58:54;;;;;;;24.23;12.15;;;;;;;;;;4992896;28;20047;-68
2022/09/07 07:01:58;;;;;;;26.92;11.70;;;;;;;;;;4992996;28;20046;-67
2022/09/07 07:05:02;;;;;;;23.38;11.63;;;;;;;;;;4992617;28;20046;-66
2022/09/07 07:08:07;;;;;;;23.23;11.73;;;;;;;;;;4992977;28;20057;-67
2022/09/07 07:11:12;;;;;;;24.02;11.95;;;;;;;;;;4992043;28;20406;-67
2022/09/07 07:14:17;;;;;;;20.40;10.68;;;;;;;;;;4992479;28;20073;-67
2022/09/07 07:17:21;;;;;;;23.55;12.63;;;;;;;;;;4991200;28;20064;-66
2022/09/07 07:20:26;;;;;;;23.10;12.02;;;;;;;;;;4992000;28;20050;-67
2022/09/07 07:23:30;;;;;;;17.02;8.65;;;;;;;;;;4991278;28;20037;-71
2022/09/07 07:26:35;;;;;;;18.38;9.73;;;;;;;;;;5002722;28;20038;-69
2022/09/07 07:29:39;;;;;;;19.83;7.88;;;;;;;;;;4992446;28;20034;-67
2022/09/07 07:32:44;;;;;;;19.27;8.23;;;;;;;;;;4992376;28;20533;-68
2022/09/07 07:35:49;;;;;;;13.50;6.47;;;;;;;;;;4992410;28;20046;-67
2022/09/07 07:38:54;;;;;;;12.93;6.15;;;;;;;;;;4992427;28;20399;-69
2022/09/07 07:41:58;;;;;;;13.05;6.53;;;;;;;;;;4992008;28;20300;-68
2022/09/07 07:45:03;;;;;;;15.48;6.50;;;;;;;;;;4992047;28;20035;-68
2022/09/07 07:48:10;;;;;;;13.95;5.70;;;;;;;;;;5002458;28;20049;-68
2022/09/07 07:51:15;;;;;;;10.05;5.07;;;;;;;;;;4992076;28;20050;-67
2022/09/07 07:54:19;;;;;;;15.63;6.03;;;;;;;;;;4991832;28;20050;-68
2022/09/07 07:57:23;;;;;;;15.55;6.93;;;;;;;;;;4991815;28;20063;-66
2022/09/07 08:00:27;;;;;;;14.95;5.90;;;;;;;;;;4991831;28;20054;-67
2022/09/07 08:03:34;;;;;;;14.30;5.60;;;;;;;;;;4991607;28;20050;-67
2022/09/07 08:06:42;;;;;;;9.85;4.75;;;;;;;;;;4992138;28;20061;-68
2022/09/07 08:09:47;;;;;;;10.90;4.93;;;;;;;;;;4991854;28;20038;-67
2022/09/07 08:12:52;;;;;;;13.93;5.68;;;;;;;;;;4992036;28;20049;-67
2022/09/07 08:16:00;;;;;;;9.82;5.30;;;;;;;;;;4991542;28;20049;-67
2022/09/07 08:19:04;;;;;;;13.98;5.72;;;;;;;;;;4991438;28;20038;-67
2022/09/07 08:22:09;;;;;;;10.73;5.78;;;;;;;;;;4991843;28;20406;-67
2022/09/07 08:25:13;;;;;;;16.70;6.65;;;;;;;;;;4991686;28;20038;-68
2022/09/07 08:28:18;;;;;;;10.55;4.75;;;;;;;;;;4991498;28;20042;-67
2022/09/07 08:31:23;;;;;;;12.57;5.80;;;;;;;;;;4990688;28;20413;-67
2022/09/07 08:34:27;;;;;;;9.40;4.18;;;;;;;;;;4991847;28;20053;-68
2022/09/07 08:37:31;;;;;;;9.93;4.75;;;;;;;;;;4991482;28;20034;-66
2022/09/07 08:40:36;;;;;;;13.30;6.28;;;;;;;;;;4991910;28;20494;-67
2022/09/07 08:43:41;;;;;;;7.90;4.45;;;;;;;;;;4991349;28;20034;-67
2022/09/07 08:46:53;;;;;;;13.38;6.03;;;;;;;;;;4991056;28;20038;-67
2022/09/07 08:50:03;;;;;;;7.28;4.45;;;;;;;;;;4991674;28;20038;-68
2022/09/07 08:53:10;;;;;;;6.60;4.10;;;;;;;;;;4991329;28;20490;-68
2022/09/07 08:56:18;;;;;;;12.20;5.82;;;;;;;;;;4991487;28;20034;-68
2022/09/07 08:59:35;;;;;;;8.70;5.68;;;;;;;;;;4991118;28;20055;-68
2022/09/07 09:02:39;;;;;;;10.50;4.95;;;;;;;;;;4991464;28;20042;-68
2022/09/07 09:06:02;;;;;;;9.05;5.68;;;;;;;;;;4991441;28;20061;-67
2022/09/07 09:09:07;;;;;;;8.80;4.57;;;;;;;;;;4990964;28;20043;-66
2022/09/07 09:12:16;;;;;;;6.57;3.90;;;;;;;;;;4991193;28;20042;-66
2022/09/07 09:15:25;;;;;;;7.93;4.18;;;;;;;;;;4991165;28;20054;-69
2022/09/07 09:18:32;;;;;;;6.22;3.53;;;;;;;;;;4991516;28;20046;-66
2022/09/07 09:21:37;;;;;;;9.52;3.72;;;;;;;;;;4991141;28;20371;-68
2022/09/07 09:24:44;;;;;;;7.28;3.03;;;;;;;;;;5001621;28;20047;-69
2022/09/07 09:27:49;;;;;;;10.77;4.60;;;;;;;;;;4990458;28;20038;-68
2022/09/07 09:30:53;;;;;;;10.13;3.97;;;;;;;;;;4991174;28;20049;-69
2022/09/07 09:34:06;;;;;;;6.22;2.95;;;;;;;;;;4993553;28;20038;-69
2022/09/07 09:37:11;;;;;;;5.40;3.50;;;;;;;;;;4994649;28;20046;-70
2022/09/07 09:40:26;;;;;;;10.05;4.00;;;;;;;;;;4994382;28;20038;-71
2022/09/07 09:43:34;;;;;;;9.95;4.47;;;;;;;;;;4994960;28;20042;-71
2022/09/07 09:46:39;;;;;;;7.20;4.07;;;;;;;;;;4994302;28;20298;-70
2022/09/07 09:49:44;;;;;;;8.23;3.80;;;;;;;;;;5005263;28;20042;-69
2022/09/07 09:52:50;;;;;;;7.38;4.22;;;;;;;;;;4994820;28;20042;-68
2022/09/07 09:55:55;;;;;;;9.57;5.00;;;;;;;;;;4994312;28;20038;-68
2022/09/07 09:59:19;;;;;;;6.07;3.65;;;;;;;;;;4995178;28;20034;-68
2022/09/07 10:02:31;;;;;;;7.07;4.70;;;;;;;;;;4994511;28;20050;-67
2022/09/07 10:05:36;;;;;;;9.15;4.63;;;;;;;;;;4994532;28;20039;-68
2022/09/07 10:08:50;;;;;;;9.75;4.00;;;;;;;;;;4994304;28;20050;-68
2022/09/07 10:11:58;;;;;;;17.63;5.57;;;;;;;;;;4994185;28;20034;-69
2022/09/07 10:15:05;;;;;;;11.88;5.30;;;;;;;;;;4993925;28;20383;-68
2022/09/07 10:18:21;;;;;;;12.75;5.50;;;;;;;;;;4994072;28;20034;-69
2022/09/07 10:21:25;;;;;;;12.77;5.70;;;;;;;;;;4993849;28;20042;-70
2022/09/07 10:24:40;;;;;;;10.68;6.10;;;;;;;;;;4994446;28;20043;-69
2022/09/07 10:27:45;;;;;;;12.18;5.75;;;;;;;;;;4993903;28;20045;-70
2022/09/07 10:30:59;;;;;;;10.20;5.22;;;;;;;;;;4993726;28;20057;-68
2022/09/07 10:34:24;;;;;;;9.95;5.93;;;;;;;;;;4993912;28;20046;-68
2022/09/07 10:37:48;;;;;;;18.63;7.93;;;;;;;;;;4993657;28;20046;-71
2022/09/07 10:41:03;;;;;;;16.73;6.20;;;;;;;;;;4993483;28;20046;-67
2022/09/07 10:44:14;;;;;;;18.35;6.78;;;;;;;;;;4992561;28;20042;-68
2022/09/07 10:47:25;;;;;;;20.40;7.28;;;;;;;;;;4993294;28;20035;-68
2022/09/07 10:50:32;;;;;;;;;;;;;;;;;;4993765;28;20030;-67
2022/09/07 10:53:54;;;;;;;8.82;5.20;;;;;;;;;;4993110;28;19933;-68
2022/09/07 10:57:02;;;;;;;8.73;5.45;;;;;;;;;;4993045;28;20498;-68
2022/09/07 11:00:08;;;;;;;7.55;5.13;;;;;;;;;;4992375;28;20035;-68
2022/09/07 11:03:32;;;;;;;10.13;5.57;;;;;;;;;;4992896;28;20042;-68
2022/09/07 11:06:40;;;;;;;8.18;5.03;;;;;;;;;;4993185;28;20046;-68
2022/09/07 11:09:53;;;;;;;5.97;4.78;;;;;;;;;;4993034;28;20398;-68
2022/09/07 11:13:00;;;;;;;10.65;5.32;;;;;;;;;;4993235;28;20046;-68
2022/09/07 11:16:12;;;;;;;10.00;6.20;;;;;;;;;;4992634;28;20055;-68
2022/09/07 11:19:20;;;;;;;5.25;4.03;;;;;;;;;;4992927;28;20513;-70
2022/09/07 11:22:31;;;;;;;9.98;4.60;;;;;;;;;;4992879;28;20038;-68
2022/09/07 11:25:38;;;;;;;6.05;4.50;;;;;;;;;;4992700;28;20031;-67
2022/09/07 11:29:15;;;;;;;13.70;6.25;;;;;;;;;;4992712;28;20046;-68
2022/09/07 11:32:24;;;;;;;7.20;4.07;;;;;;;;;;4997856;28;20049;-69
2022/09/07 11:36:00;;;;;;;7.85;4.00;;;;;;;;;;4992126;28;20502;-69
2022/09/07 11:39:18;;;;;;;9.98;4.68;;;;;;;;;;4992427;28;20379;-68
2022/09/07 11:42:39;;;;;;;7.82;5.20;;;;;;;;;;4992272;28;20042;-68
2022/09/07 11:45:46;;;;;;;8.00;4.47;;;;;;;;;;4992464;28;20399;-69
2022/09/07 11:48:52;;;;;;;8.93;3.95;;;;;;;;;;4992421;28;20046;-68
2022/09/07 11:52:00;;;;;;;6.93;3.92;;;;;;;;;;4992086;28;20375;-68
2022/09/07 11:55:10;;;;;;;6.80;3.80;;;;;;;;;;4991753;28;20518;-69
2022/09/07 11:58:33;;;;;;;10.70;4.40;;;;;;;;;;5002931;28;20038;-69
2022/09/07 12:01:47;;;;;;;7.90;4.03;;;;;;;;;;4991847;28;20042;-69
2022/09/07 12:05:06;;;;;;;10.48;4.40;;;;;;;;;;4991957;28;20042;-68
2022/09/07 12:08:17;;;;;;;9.95;4.43;;;;;;;;;;4992069;28;20042;-68
2022/09/07 12:11:34;;;;;;;10.98;3.88;;;;;;;;;;4991963;28;20495;-67
2022/09/07 12:14:38;;;;;;;5.35;3.72;;;;;;;;;;4991639;28;20042;-69
2022/09/07 12:18:12;;;;;;;7.40;3.17;;;;;;;;;;4991615;28;20054;-69
2022/09/07 12:21:34;;;;;;;6.07;3.45;;;;;;;;;;5002384;28;20031;-68
2022/09/07 12:24:39;;;;;;;5.95;2.92;;;;;;;;;;4991915;28;20034;-68
2022/09/07 12:27:43;;;;;;;6.40;3.00;;;;;;;;;;4991811;28;20035;-69
2022/09/07 12:31:04;;;;;;;4.22;2.80;;;;;;;;;;4991678;28;20038;-69
2022/09/07 12:34:08;;;;;;;;;;;;;;;;;;4992082;28;20386;-68
2022/09/07 12:37:16;;;;;;;3.67;3.20;;;;;;;;;;4991588;28;19917;-68
2022/09/07 12:40:36;;;;;;;4.88;2.50;;;;;;;;;;4992007;28;20486;-67
2022/09/07 12:43:43;;;;;;;5.75;2.63;;;;;;;;;;4991657;28;20506;-68
2022/09/07 12:46:50;;;;;;;6.75;3.00;;;;;;;;;;4991390;28;20043;-67
2022/09/07 12:50:13;;;;;;;4.60;2.83;;;;;;;;;;4991866;28;20038;-69
2022/09/07 12:53:21;;;;;;;11.48;3.47;;;;;;;;;;4991606;28;20039;-67
2022/09/07 12:56:25;;;;;;;10.35;2.42;;;;;;;;;;4991090;28;20057;-67
2022/09/07 12:59:41;;;;;;;6.18;3.00;;;;;;;;;;4991705;28;20042;-67
2022/09/07 13:03:02;;;;;;;7.00;2.85;;;;;;;;;;4991425;28;20050;-68
2022/09/07 13:06:06;;;;;;;4.35;2.90;;;;;;;;;;4990464;28;20035;-67
2022/09/07 13:09:29;;;;;;;5.60;2.90;;;;;;;;;;4994544;28;20490;-67
2022/09/07 13:12:37;;;;;;;14.45;3.72;;;;;;;;;;4995360;28;20046;-67
2022/09/07 13:15:46;;;;;;;5.07;3.28;;;;;;;;;;4994873;28;20046;-68
2022/09/07 13:18:51;;;;;;;5.55;2.63;;;;;;;;;;4994802;28;20046;-68
2022/09/07 13:21:55;;;;;;;5.10;2.47;;;;;;;;;;4994791;28;20039;-68
2022/09/07 13:25:20;;;;;;;11.70;2.67;;;;;;;;;;4994579;28;20034;-66
2022/09/07 13:28:27;;;;;;;8.95;2.85;;;;;;;;;;4994384;28;20060;-66
2022/09/07 13:31:34;;;;;;;4.32;2.50;;;;;;;;;;4994638;28;20046;-67
2022/09/07 13:34:57;;;;;;;8.32;2.97;;;;;;;;;;4994591;28;20046;-68
2022/09/07 13:38:02;;;;;;;7.35;2.63;;;;;;;;;;4994558;28;20042;-68
2022/09/07 13:41:11;;;;;;;6.55;2.97;;;;;;;;;;4994226;28;20034;-69
2022/09/07 13:44:29;;;;;;;10.52;3.22;;;;;;;;;;4994580;28;20038;-70
2022/09/07 13:47:52;;;;;;;8.75;3.08;;;;;;;;;;4994611;28;20042;-70
2022/09/07 13:51:07;;;;;;;9.70;2.75;;;;;;;;;;4994318;28;20050;-71
2022/09/07 13:54:23;;;;;;;6.47;2.90;;;;;;;;;;4994320;28;20030;-67
2022/09/07 13:57:33;;;;;;;6.90;3.25;;;;;;;;;;4993917;28;20089;-69
2022/09/07 14:00:49;;;;;;;13.00;5.45;;;;;;;;;;4994453;28;20031;-69
2022/09/07 14:03:55;;;;;;;5.97;3.10;;;;;;;;;;4993859;28;20430;-66
2022/09/07 14:07:02;;;;;;;6.93;2.20;;;;;;;;;;4993825;28;20042;-70
2022/09/07 14:10:18;;;;;;;8.52;2.30;;;;;;;;;;4993950;28;20038;-68
2022/09/07 14:13:22;;;;;;;8.80;2.30;;;;;;;;;;4993103;28;20046;-74
2022/09/07 14:16:26;;;;;;;6.93;2.10;;;;;;;;;;5004131;28;20050;-77
2022/09/07 14:19:41;;;;;;;9.05;2.58;;;;;;;;;;5004202;28;20038;-76
2022/09/07 14:22:45;;;;;;;9.70;2.40;;;;;;;;;;4993301;28;20352;-72
2022/09/07 14:26:08;;;;;;;5.50;2.70;;;;;;;;;;4993689;28;20038;-73
2022/09/07 14:29:20;;;;;;;12.02;2.45;;;;;;;;;;5004028;28;20038;-73
2022/09/07 14:32:25;;;;;;;6.25;2.33;;;;;;;;;;4993860;28;20046;-74
2022/09/07 14:35:32;;;;;;;13.70;2.30;;;;;;;;;;4993302;28;20046;-73
2022/09/07 14:38:36;;;;;;;3.55;2.55;;;;;;;;;;4993571;28;20039;-76
2022/09/07 14:41:41;;;;;;;13.68;2.50;;;;;;;;;;4993685;28;20038;-74
2022/09/07 14:44:46;;;;;;;6.57;2.30;;;;;;;;;;4993392;28;20042;-73
2022/09/07 14:47:52;;;;;;;7.45;2.25;;;;;;;;;;4993229;28;20560;-73
2022/09/07 14:50:56;;;;;;;7.80;1.80;;;;;;;;;;4993313;28;20046;-75
2022/09/07 14:54:02;;;;;;;9.23;2.47;;;;;;;;;;4992534;28;20081;-73
2022/09/07 14:57:29;;;;;;;8.60;2.58;;;;;;;;;;4992688;28;20054;-76
2022/09/07 15:00:33;;;;;;;4.55;1.92;;;;;;;;;;4993235;28;20034;-74
2022/09/07 15:03:40;;;;;;;5.57;2.40;;;;;;;;;;4992936;28;20449;-74
2022/09/07 15:06:45;;;;;;;6.50;2.13;;;;;;;;;;4993183;28;20034;-74
2022/09/07 15:09:49;;;;;;;3.95;1.95;;;;;;;;;;5003366;28;20103;-74
2022/09/07 15:12:55;;;;;;;5.95;2.17;;;;;;;;;;5003238;28;20038;-74
2022/09/07 15:16:05;;;;;;;7.85;2.63;;;;;;;;;;5003095;28;20050;-74
2022/09/07 15:19:15;;;;;;;6.03;2.10;;;;;;;;;;4954288;29;20047;-74
2022/09/07 15:22:20;;;;;;;8.95;2.20;;;;;;;;;;4954073;29;20039;-74
2022/09/07 15:25:25;;;;;;;4.57;2.10;;;;;;;;;;4954030;29;20043;-74
2022/09/07 15:28:30;;;;;;;5.18;1.88;;;;;;;;;;4954105;29;20377;-74
2022/09/07 15:31:35;;;;;;;10.93;2.10;;;;;;;;;;4953270;28;20467;-74
2022/09/07 15:34:40;;;;;;;8.68;2.05;;;;;;;;;;4953936;29;20058;-74
2022/09/07 15:37:44;;;;;;;5.07;1.70;;;;;;;;;;4953320;29;20047;-74
2022/09/07 15:40:53;;;;;;;8.48;2.05;;;;;;;;;;4953426;29;20035;-74
2022/09/07 15:43:57;;;;;;;5.68;2.22;;;;;;;;;;4953313;29;20043;-75
2022/09/07 15:47:01;;;;;;;6.72;2.08;;;;;;;;;;4953303;29;20043;-74
2022/09/07 15:50:07;;;;;;;20.15;2.95;;;;;;;;;;4953768;29;20035;-74
2022/09/07 15:53:11;;;;;;;8.18;1.70;;;;;;;;;;4953345;29;20157;-74
2022/09/07 15:56:15;;;;;;;7.57;2.25;;;;;;;;;;4953051;29;20051;-72
2022/09/07 15:59:20;;;;;;;4.88;1.73;;;;;;;;;;4952889;29;20515;-74
2022/09/07 16:02:24;;;;;;;8.88;2.20;;;;;;;;;;4953040;29;20043;-73
2022/09/07 16:05:30;;;;;;;7.22;2.20;;;;;;;;;;4953275;29;20492;-73
2022/09/07 16:08:34;;;;;;;6.22;2.00;;;;;;;;;;4953025;29;20396;-74
2022/09/07 16:11:38;;;;;;;6.75;3.85;;;;;;;;;;4952731;29;20039;-74
2022/09/07 16:14:42;;;;;;;5.43;2.97;;;;;;;;;;4962734;28;20349;-74
2022/09/07 16:17:48;;;;;;;10.18;3.63;;;;;;;;;;4972315;28;20423;-74
2022/09/07 16:20:52;;;;;;;5.18;2.05;;;;;;;;;;4991492;28;20045;-74
2022/09/07 16:23:57;;;;;;;4.97;2.13;;;;;;;;;;4992274;28;20351;-74
2022/09/07 16:27:01;;;;;;;6.10;2.70;;;;;;;;;;4991470;28;20046;-74
2022/09/07 16:30:06;;;;;;;8.65;2.30;;;;;;;;;;4991637;28;20039;-73
2022/09/07 16:33:10;;;;;;;5.95;2.38;;;;;;;;;;5002126;28;20042;-74
2022/09/07 16:36:15;;;;;;;7.00;3.53;;;;;;;;;;4991115;28;20046;-73
2022/09/07 16:39:20;;;;;;;9.20;6.20;;;;;;;;;;4991685;28;20478;-74
2022/09/07 16:42:24;;;;;;;11.70;5.93;;;;;;;;;;4993585;28;20038;-73
2022/09/07 16:45:28;;;;;;;14.55;7.20;;;;;;;;;;4994462;28;20051;-73
2022/09/07 16:48:33;;;;;;;12.80;6.57;;;;;;;;;;4995351;28;20046;-73
2022/09/07 16:51:38;;;;;;;15.05;5.22;;;;;;;;;;4995161;28;20178;-74
2022/09/07 16:54:42;;;;;;;15.52;4.38;;;;;;;;;;4995645;28;20385;-74
2022/09/07 16:57:47;;;;;;;9.95;3.33;;;;;;;;;;4995231;28;20410;-74
2022/09/07 17:00:51;;;;;;;6.35;2.60;;;;;;;;;;4994714;28;20391;-73
2022/09/07 17:03:55;;;;;;;9.00;2.00;;;;;;;;;;4995109;28;20038;-73
2022/09/07 17:06:59;;;;;;;15.68;2.58;;;;;;;;;;4995137;28;20038;-73
2022/09/07 17:10:04;;;;;;;12.15;2.88;;;;;;;;;;4995165;28;20049;-73
2022/09/07 17:13:08;;;;;;;11.82;2.67;;;;;;;;;;4994769;28;20049;-73
2022/09/07 17:16:18;;;;;;;5.35;2.28;;;;;;;;;;4994703;28;20055;-73
2022/09/07 17:19:23;;;;;;;11.60;2.40;;;;;;;;;;5005328;28;20065;-74
2022/09/07 17:22:27;;;;;;;9.18;3.42;;;;;;;;;;4993930;28;20043;-73
2022/09/07 17:25:31;;;;;;;7.38;3.47;;;;;;;;;;4994752;28;20031;-74
2022/09/07 17:28:36;;;;;;;12.38;5.00;;;;;;;;;;5005181;28;20038;-74
2022/09/07 17:31:41;;;;;;;18.98;4.68;;;;;;;;;;4994356;28;20034;-74
2022/09/07 17:34:45;;;;;;;20.15;5.43;;;;;;;;;;4994319;28;20038;-74
2022/09/07 17:37:49;;;;;;;18.00;5.38;;;;;;;;;;4994744;28;20410;-72
2022/09/07 17:40:54;;;;;;;14.52;6.00;;;;;;;;;;4994322;28;20497;-72
2022/09/07 17:43:59;;;;;;;23.10;7.63;;;;;;;;;;4994328;28;20514;-70
2022/09/07 17:47:03;;;;;;;17.80;6.35;;;;;;;;;;4994296;28;20034;-73
2022/09/07 17:50:08;;;;;;;8.80;4.30;;;;;;;;;;4994210;28;20376;-72
2022/09/07 17:53:12;;;;;;;10.40;4.45;;;;;;;;;;4993735;28;20038;-72
2022/09/07 17:56:16;;;;;;;9.07;4.30;;;;;;;;;;4993732;28;20517;-72
2022/09/07 17:59:21;;;;;;;11.00;4.22;;;;;;;;;;4994143;28;20387;-71
2022/09/07 18:02:25;;;;;;;13.55;4.32;;;;;;;;;;4994506;28;20042;-72
2022/09/07 18:05:30;;;;;;;9.95;3.85;;;;;;;;;;4994181;28;20049;-72
2022/09/07 18:08:35;;;;;;;11.75;4.30;;;;;;;;;;4994026;28;20038;-73
2022/09/07 18:11:41;;;;;;;14.35;4.90;;;;;;;;;;4994215;28;20407;-72
2022/09/07 18:14:46;;;;;;;15.55;5.80;;;;;;;;;;4993900;28;20038;-72
2022/09/07 18:17:50;;;;;;;14.93;4.57;;;;;;;;;;5003930;28;20058;-73
2022/09/07 18:20:55;;;;;;;9.10;4.18;;;;;;;;;;4994211;28;20042;-73
2022/09/07 18:24:03;;;;;;;12.30;4.65;;;;;;;;;;4993605;28;20386;-72
2022/09/07 18:27:08;;;;;;;9.93;4.32;;;;;;;;;;4993880;28;20045;-72
2022/09/07 18:30:12;;;;;;;10.18;4.13;;;;;;;;;;4993819;28;20050;-73